Time;durP1;ratioP1;P1;durP2;ratioP2;P2;SDS_P1;SDS_P2;PMS_P1;PMS_P2;Temp;Humidity;BMP_temperature;BMP_pressure;BME280_temperature;BME280_humidity;BME280_pressure;Samples;Min_cycle;Max_cycle;Signal;HPM_P1;HPM_P2
2023/01/29 00:00:39;;;;;;;15.23;12.18;;;3.60;99.90;;;;;;6127575;23;20013;-84
2023/01/29 00:03:05;;;;;;;13.73;12.25;;;3.70;99.90;;;;;;6126738;23;20009;-85
2023/01/29 00:05:30;;;;;;;15.40;11.52;;;3.60;99.90;;;;;;6128653;23;20439;-85
2023/01/29 00:07:56;;;;;;;16.70;12.75;;;3.60;99.90;;;;;;6128876;23;20402;-85
2023/01/29 00:10:25;;;;;;;19.02;12.93;;;3.60;99.90;;;;;;6129406;23;20369;-85
2023/01/29 00:12:51;;;;;;;15.15;13.00;;;3.60;99.90;;;;;;6153958;23;20057;-84
2023/01/29 00:15:17;;;;;;;17.60;13.38;;;3.60;99.90;;;;;;6127637;23;20485;-84
2023/01/29 00:17:43;;;;;;;15.18;11.13;;;3.60;99.90;;;;;;6128546;23;20043;-85
2023/01/29 00:20:09;;;;;;;15.15;12.60;;;3.70;99.90;;;;;;6129960;23;20009;-85
2023/01/29 00:22:35;;;;;;;14.68;12.50;;;3.70;99.90;;;;;;6151632;23;20067;-84
2023/01/29 00:25:01;;;;;;;14.48;12.23;;;3.60;99.90;;;;;;6127332;23;20669;-84
2023/01/29 00:27:26;;;;;;;14.38;12.18;;;3.60;99.90;;;;;;6127627;23;20070;-84
2023/01/29 00:30:08;;;;;;;17.33;13.40;;;3.60;99.90;;;;;;6153003;23;20017;-85
2023/01/29 00:32:34;;;;;;;15.88;12.88;;;3.70;99.90;;;;;;6127288;23;20045;-84
2023/01/29 00:35:00;;;;;;;16.55;13.65;;;3.70;99.90;;;;;;6150835;23;20017;-85
2023/01/29 00:37:26;;;;;;;17.05;13.18;;;3.70;99.90;;;;;;6128567;23;20033;-85
2023/01/29 00:39:51;;;;;;;15.80;13.55;;;3.70;99.90;;;;;;6127267;23;20332;-85
2023/01/29 00:45:01;;;;;;;15.48;13.82;;;3.70;99.90;;;;;;6149866;23;20526;-85
2023/01/29 00:47:29;;;;;;;16.85;13.27;;;3.80;99.90;;;;;;6128888;23;20052;-85
2023/01/29 00:49:55;;;;;;;15.95;13.95;;;3.80;99.90;;;;;;6128372;23;20351;-85
2023/01/29 00:52:23;;;;;;;15.77;13.65;;;3.80;99.90;;;;;;6128734;23;20018;-85
2023/01/29 00:54:49;;;;;;;21.35;13.50;;;3.90;99.90;;;;;;6152216;23;20010;-85
2023/01/29 00:57:15;;;;;;;17.90;13.93;;;3.80;99.90;;;;;;6152809;23;20005;-84
2023/01/29 00:59:40;;;;;;;15.38;13.75;;;3.80;99.90;;;;;;6152856;23;20060;-84
2023/01/29 01:04:50;;;;;;;19.63;14.35;;;3.90;99.90;;;;;;6152693;23;20108;-85
2023/01/29 01:07:15;;;;;;;18.10;13.73;;;3.90;99.90;;;;;;6127822;23;20331;-84
2023/01/29 01:12:26;;;;;;;16.90;13.55;;;3.90;99.90;;;;;;6152164;23;20060;-85
2023/01/29 01:14:52;;;;;;;15.20;13.60;;;3.80;99.90;;;;;;6126924;23;20060;-85
2023/01/29 01:17:17;;;;;;;20.67;12.73;;;3.90;99.90;;;;;;6151705;23;20018;-84
2023/01/29 01:19:43;;;;;;;17.15;14.00;;;3.90;99.90;;;;;;6152895;23;20016;-84
2023/01/29 01:22:09;;;;;;;20.02;13.57;;;3.90;99.90;;;;;;6128210;23;20041;-84
2023/01/29 01:24:34;;;;;;;15.52;13.60;;;3.90;99.90;;;;;;6150334;23;20017;-85
2023/01/29 01:27:00;;;;;;;17.25;14.18;;;3.90;99.90;;;;;;6127391;23;20419;-85
2023/01/29 01:29:25;;;;;;;18.08;14.43;;;3.80;99.90;;;;;;6151217;23;20024;-85
2023/01/29 01:31:52;;;;;;;18.65;14.52;;;3.90;99.90;;;;;;6126175;23;20064;-85
2023/01/29 01:34:18;;;;;;;17.52;14.45;;;3.90;99.90;;;;;;6151973;23;20064;-85
2023/01/29 01:36:44;;;;;;;15.73;14.07;;;3.90;99.90;;;;;;6127055;23;20010;-84
2023/01/29 01:39:10;;;;;;;18.13;14.00;;;3.90;99.90;;;;;;6153315;23;20016;-85
2023/01/29 01:41:35;;;;;;;18.52;14.30;;;3.90;99.90;;;;;;6152354;23;20505;-85
2023/01/29 01:44:03;;;;;;;17.83;14.60;;;3.90;99.90;;;;;;6128048;23;20014;-84
2023/01/29 01:46:30;;;;;;;15.25;13.65;;;3.90;99.90;;;;;;6126792;23;20091;-84
2023/01/29 01:49:25;;;;;;;15.82;13.35;;;3.90;99.90;;;;;;6127852;23;20088;-85
2023/01/29 01:51:51;;;;;;;15.05;13.05;;;3.90;99.90;;;;;;6102915;23;20017;-85
2023/01/29 01:54:22;;;;;;;19.30;13.68;;;3.90;99.90;;;;;;6129787;23;20497;-84
2023/01/29 01:56:54;;;;;;;17.85;14.60;;;3.90;99.90;;;;;;6152749;23;20395;-84
2023/01/29 01:59:21;;;;;;;17.48;13.88;;;3.90;99.90;;;;;;6154885;23;20450;-84
2023/01/29 02:01:52;;;;;;;18.60;14.55;;;4.00;99.90;;;;;;6129492;23;20020;-84
2023/01/29 02:10:27;;;;;;;15.55;13.65;;;4.00;99.90;;;;;;6154631;23;20091;-85
2023/01/29 02:12:52;;;;;;;19.38;14.35;;;3.90;99.90;;;;;;6123640;23;20677;-85
2023/01/29 02:15:18;;;;;;;19.80;13.38;;;4.00;99.90;;;;;;6154439;23;20029;-85
2023/01/29 02:17:47;;;;;;;16.60;13.85;;;4.00;99.90;;;;;;6154363;23;20017;-84
2023/01/29 02:20:31;;;;;;;18.23;14.00;;;4.00;99.90;;;;;;6130104;23;20014;-84
2023/01/29 02:23:13;;;;;;;14.68;12.50;;;4.00;99.90;;;;;;6130372;23;20009;-84
2023/01/29 02:26:00;;;;;;;15.32;13.60;;;4.10;99.90;;;;;;6153885;23;20045;-85
2023/01/29 02:28:28;;;;;;;17.40;13.00;;;4.00;99.90;;;;;;6154268;23;20051;-84
2023/01/29 02:31:25;;;;;;;17.38;13.07;;;4.00;99.90;;;;;;6130699;23;20021;-84
2023/01/29 02:34:13;;;;;;;17.23;14.32;;;4.00;99.90;;;;;;6129420;23;20052;-85
2023/01/29 02:37:03;;;;;;;16.75;13.32;;;4.00;99.90;;;;;;6128457;23;20036;-85
2023/01/29 02:39:38;;;;;;;15.52;13.93;;;4.10;99.90;;;;;;6128766;23;20086;-84
2023/01/29 02:42:21;;;;;;;14.20;12.77;;;4.10;99.90;;;;;;6129469;23;20013;-85
2023/01/29 02:45:03;;;;;;;15.02;13.43;;;4.00;99.90;;;;;;6129234;23;20018;-85
2023/01/29 02:47:47;;;;;;;16.58;13.68;;;4.00;99.90;;;;;;6129390;23;20022;-84
2023/01/29 02:50:36;;;;;;;14.65;12.68;;;4.10;99.90;;;;;;6128619;23;20013;-84
2023/01/29 02:53:12;;;;;;;16.85;12.80;;;4.00;99.90;;;;;;6128653;23;20028;-84
2023/01/29 02:55:52;;;;;;;14.25;12.75;;;4.10;99.90;;;;;;6152785;23;20019;-84
2023/01/29 02:58:33;;;;;;;15.38;12.68;;;4.00;99.90;;;;;;6129128;23;20009;-85
2023/01/29 03:01:10;;;;;;;16.25;13.52;;;4.10;99.90;;;;;;6153945;23;20018;-85
2023/01/29 03:03:41;;;;;;;17.52;13.60;;;4.10;99.90;;;;;;6129364;23;20013;-85
2023/01/29 03:06:17;;;;;;;14.90;12.80;;;4.10;99.90;;;;;;6128465;23;20092;-85
2023/01/29 03:08:48;;;;;;;;;;;4.00;99.90;;;;;;6129620;23;20051;-85
2023/01/29 03:11:16;;;;;;;15.02;13.25;;;4.00;99.90;;;;;;6127805;23;19920;-84
2023/01/29 03:14:06;;;;;;;15.60;12.77;;;4.00;99.90;;;;;;6127725;23;20096;-85
2023/01/29 03:16:34;;;;;;;17.00;13.90;;;4.00;99.90;;;;;;6152432;23;20123;-84
2023/01/29 03:19:06;;;;;;;15.35;13.48;;;4.00;99.90;;;;;;6129167;23;20016;-84
2023/01/29 03:21:50;;;;;;;18.58;13.73;;;3.90;99.90;;;;;;6125822;23;20017;-84
2023/01/29 03:32:45;;;;;;;14.73;13.13;;;3.90;99.90;;;;;;6152295;23;20095;-84
2023/01/29 03:35:19;;;;;;;14.48;12.60;;;3.90;99.90;;;;;;6127484;23;20017;-85
2023/01/29 03:37:47;;;;;;;19.60;13.35;;;3.90;99.90;;;;;;6152310;23;20024;-84
2023/01/29 03:40:13;;;;;;;13.90;11.95;;;3.90;99.90;;;;;;6126902;23;20018;-84
2023/01/29 03:43:03;;;;;;;15.07;13.32;;;3.90;99.90;;;;;;6126074;23;20009;-85
2023/01/29 03:45:45;;;;;;;15.70;12.93;;;3.90;99.90;;;;;;6149808;23;20070;-84
2023/01/29 03:48:39;;;;;;;19.13;12.68;;;3.90;99.90;;;;;;6128377;23;20141;-84
2023/01/29 03:51:30;;;;;;;15.30;13.45;;;4.00;99.90;;;;;;6126445;23;20557;-84
2023/01/29 03:54:04;;;;;;;17.42;14.27;;;3.90;99.90;;;;;;6151431;23;20021;-85
2023/01/29 03:56:39;;;;;;;16.08;13.15;;;4.00;99.90;;;;;;6126503;23;20068;-84
2023/01/29 03:59:20;;;;;;;20.25;15.38;;;4.00;99.90;;;;;;6151991;23;20009;-84
2023/01/29 04:01:56;;;;;;;20.15;14.88;;;4.00;99.90;;;;;;6128610;23;20016;-84
2023/01/29 04:04:31;;;;;;;15.60;14.10;;;4.00;99.90;;;;;;6152809;23;20605;-84
2023/01/29 04:07:16;;;;;;;28.33;15.60;;;4.00;99.90;;;;;;6151887;23;20064;-84
2023/01/29 04:09:50;;;;;;;18.05;15.88;;;4.00;99.90;;;;;;6127767;23;20017;-84
2023/01/29 04:12:23;;;;;;;15.77;13.88;;;4.00;99.90;;;;;;6127591;23;20096;-85
2023/01/29 04:14:50;;;;;;;17.27;14.93;;;4.00;99.90;;;;;;6125679;23;20101;-84
2023/01/29 04:17:20;;;;;;;18.50;15.18;;;4.00;99.90;;;;;;6125887;23;20010;-85
2023/01/29 04:19:46;;;;;;;17.02;15.23;;;4.00;99.90;;;;;;6122884;23;20013;-85
2023/01/29 04:22:20;;;;;;;19.92;16.30;;;4.00;99.90;;;;;;6122821;23;20017;-84
2023/01/29 04:24:47;;;;;;;20.45;16.33;;;4.00;99.90;;;;;;6122287;23;20067;-85
2023/01/29 04:27:35;;;;;;;23.40;17.05;;;4.10;99.90;;;;;;6148496;23;20493;-85
2023/01/29 04:30:23;;;;;;;22.00;15.55;;;4.00;99.90;;;;;;6123491;23;20025;-85
2023/01/29 04:33:16;;;;;;;18.45;15.95;;;4.10;99.90;;;;;;6125855;23;20084;-85
2023/01/29 04:36:00;;;;;;;20.90;16.67;;;4.00;99.90;;;;;;6123211;23;20014;-85
2023/01/29 04:38:55;;;;;;;18.92;16.92;;;4.10;99.90;;;;;;6123147;23;20068;-84
2023/01/29 04:41:46;;;;;;;17.58;15.68;;;4.00;99.90;;;;;;6149522;23;20013;-85
2023/01/29 04:44:42;;;;;;;20.83;16.48;;;4.10;99.90;;;;;;6124058;23;20335;-85
2023/01/29 04:47:29;;;;;;;19.80;16.67;;;4.10;99.90;;;;;;6123728;23;20014;-85
2023/01/29 04:50:06;;;;;;;20.50;17.80;;;4.10;99.90;;;;;;6123732;23;20009;-85
2023/01/29 04:53:01;;;;;;;22.17;17.00;;;4.20;99.90;;;;;;6150602;23;20056;-84
2023/01/29 04:55:50;;;;;;;19.50;17.23;;;4.10;99.90;;;;;;6125071;23;20017;-84
2023/01/29 04:58:28;;;;;;;19.38;17.38;;;4.10;99.90;;;;;;6150501;23;20016;-84
2023/01/29 05:00:53;;;;;;;19.58;17.13;;;4.10;99.90;;;;;;6124706;23;20042;-85
2023/01/29 05:03:23;;;;;;;18.92;16.15;;;4.20;99.90;;;;;;6126535;23;20016;-84
2023/01/29 05:05:50;;;;;;;20.08;17.65;;;4.10;99.90;;;;;;6148001;23;20024;-85
2023/01/29 05:08:19;;;;;;;21.80;17.30;;;4.10;99.90;;;;;;6126684;23;20018;-84
2023/01/29 05:10:48;;;;;;;20.02;16.90;;;4.10;99.90;;;;;;6125992;23;20024;-85
2023/01/29 05:13:14;;;;;;;18.95;16.60;;;4.10;99.90;;;;;;6126345;23;20013;-85
2023/01/29 05:15:53;;;;;;;22.45;18.40;;;4.10;99.90;;;;;;6123929;23;20017;-85
2023/01/29 05:18:19;;;;;;;22.08;16.98;;;4.20;99.90;;;;;;6126135;23;20331;-85
2023/01/29 05:20:46;;;;;;;19.25;17.13;;;4.20;99.90;;;;;;6150311;23;20041;-85
2023/01/29 05:23:20;;;;;;;20.25;17.70;;;4.20;99.90;;;;;;6125614;23;20758;-85
2023/01/29 05:25:48;;;;;;;19.75;17.65;;;4.10;99.90;;;;;;6148707;23;20016;-85
2023/01/29 05:28:16;;;;;;;21.02;18.92;;;4.10;99.90;;;;;;6123998;23;20358;-85
2023/01/29 05:30:47;;;;;;;20.50;18.40;;;4.20;99.90;;;;;;6150064;23;20017;-85
2023/01/29 05:33:22;;;;;;;20.50;18.40;;;4.20;99.90;;;;;;6150944;23;20191;-85
2023/01/29 05:35:49;;;;;;;20.52;18.42;;;4.20;99.90;;;;;;6125342;23;20083;-85
2023/01/29 05:38:16;;;;;;;20.27;18.20;;;4.20;99.90;;;;;;6148858;23;20013;-85
2023/01/29 05:40:42;;;;;;;21.05;18.88;;;4.20;99.90;;;;;;6149606;23;20079;-85
2023/01/29 05:43:17;;;;;;;19.52;17.45;;;4.20;99.90;;;;;;6126015;23;20384;-85
2023/01/29 05:45:43;;;;;;;21.80;19.55;;;4.20;99.90;;;;;;6149537;23;20021;-84
2023/01/29 05:48:08;;;;;;;20.90;18.80;;;4.20;99.90;;;;;;6126904;23;20355;-85
2023/01/29 05:50:34;;;;;;;22.88;19.70;;;4.10;99.90;;;;;;6150308;23;20028;-85
2023/01/29 05:53:00;;;;;;;20.90;18.90;;;4.10;99.90;;;;;;6125723;23;20018;-85
2023/01/29 05:55:30;;;;;;;20.75;18.75;;;4.10;99.90;;;;;;6151207;23;20021;-84
2023/01/29 05:57:56;;;;;;;22.67;19.60;;;4.10;99.90;;;;;;6126350;23;20013;-85
2023/01/29 06:00:22;;;;;;;23.48;17.92;;;4.10;99.90;;;;;;6126201;23;20014;-85
2023/01/29 06:02:47;;;;;;;21.67;19.48;;;4.00;99.90;;;;;;6126872;23;20461;-85
2023/01/29 06:05:13;;;;;;;21.73;19.02;;;4.10;99.90;;;;;;6124977;23;20024;-85
2023/01/29 06:07:43;;;;;;;23.85;19.30;;;4.10;99.90;;;;;;6127733;23;20037;-83
2023/01/29 06:10:13;;;;;;;22.02;19.45;;;4.10;99.90;;;;;;6127644;23;20020;-83
2023/01/29 06:12:40;;;;;;;22.35;20.08;;;4.10;99.90;;;;;;6128302;23;20018;-83
2023/01/29 06:15:06;;;;;;;23.05;20.55;;;4.20;99.90;;;;;;6127514;23;20021;-83
2023/01/29 06:17:31;;;;;;;22.35;20.08;;;4.10;99.90;;;;;;6152186;23;20336;-84
2023/01/29 06:23:20;;;;;;;22.48;20.27;;;4.10;99.90;;;;;;6152517;23;20020;-83
2023/01/29 06:25:46;;;;;;;21.50;19.30;;;4.20;99.90;;;;;;6129020;23;20092;-82
2023/01/29 06:28:12;;;;;;;23.42;21.13;;;4.10;99.90;;;;;;6154966;23;20029;-82
2023/01/29 06:30:37;;;;;;;22.02;19.73;;;4.10;99.90;;;;;;6130077;23;20013;-81
2023/01/29 06:33:03;;;;;;;22.83;20.52;;;4.10;99.90;;;;;;6128614;23;20010;-83
2023/01/29 06:35:28;;;;;;;23.17;20.77;;;4.10;99.90;;;;;;6127589;23;20071;-83
2023/01/29 06:37:55;;;;;;;21.63;19.38;;;4.10;99.90;;;;;;6127026;23;20010;-81
2023/01/29 06:40:20;;;;;;;22.30;19.75;;;4.10;99.90;;;;;;6150823;23;20374;-81
2023/01/29 06:42:46;;;;;;;21.27;18.77;;;4.10;99.90;;;;;;6154238;23;20020;-82
2023/01/29 06:45:11;;;;;;;22.55;20.02;;;4.10;99.90;;;;;;6130968;23;20022;-83
2023/01/29 06:47:37;;;;;;;22.15;19.75;;;4.00;99.90;;;;;;6131397;23;20014;-83
2023/01/29 06:50:03;;;;;;;22.17;19.90;;;4.10;99.90;;;;;;6155042;23;20104;-83
2023/01/29 06:52:29;;;;;;;20.38;18.35;;;4.00;99.90;;;;;;6131143;23;20074;-83
2023/01/29 06:54:55;;;;;;;23.88;21.38;;;4.10;99.90;;;;;;6130648;23;20013;-81
2023/01/29 06:57:21;;;;;;;21.65;19.45;;;4.00;99.90;;;;;;6153858;23;20010;-82
2023/01/29 06:59:46;;;;;;;22.52;20.00;;;4.00;99.90;;;;;;6130889;23;20041;-82
2023/01/29 07:02:12;;;;;;;23.70;20.17;;;4.10;99.90;;;;;;6130400;23;20092;-82
2023/01/29 07:04:40;;;;;;;24.00;21.23;;;4.00;99.90;;;;;;6155189;23;20041;-82
2023/01/29 07:07:11;;;;;;;24.63;21.33;;;4.00;99.90;;;;;;6155926;23;20057;-83
2023/01/29 07:09:37;;;;;;;23.42;21.05;;;4.00;99.90;;;;;;6155274;23;20032;-83
2023/01/29 07:12:03;;;;;;;23.75;20.80;;;4.00;99.90;;;;;;6130264;23;20017;-82
2023/01/29 07:14:29;;;;;;;22.90;20.60;;;4.00;99.90;;;;;;6155468;23;20018;-83
2023/01/29 07:16:54;;;;;;;23.38;20.98;;;4.00;99.90;;;;;;6154729;23;20013;-83
2023/01/29 07:19:20;;;;;;;22.50;20.10;;;4.00;99.90;;;;;;6155529;23;20014;-83
2023/01/29 07:21:45;;;;;;;23.85;21.30;;;4.00;99.90;;;;;;6156021;23;20009;-81
2023/01/29 07:24:11;;;;;;;24.42;21.42;;;4.00;99.90;;;;;;6156192;23;20049;-82
2023/01/29 07:26:37;;;;;;;24.38;21.85;;;4.10;99.90;;;;;;6130556;23;20013;-82
2023/01/29 07:29:04;;;;;;;25.08;21.35;;;4.10;99.90;;;;;;6155479;23;20020;-82
2023/01/29 07:35:33;;;;;;;25.55;22.75;;;4.10;99.90;;;;;;6140287;23;20032;-85
2023/01/29 07:38:40;;;;;;;23.80;20.98;;;4.00;99.90;;;;;;6080191;23;20050;-85
2023/01/29 07:41:06;;;;;;;26.60;23.30;;;4.00;99.90;;;;;;6130286;23;20013;-82
2023/01/29 07:43:32;;;;;;;25.73;22.17;;;4.00;99.90;;;;;;6156318;23;20025;-81
2023/01/29 07:46:04;;;;;;;24.58;21.75;;;4.00;99.90;;;;;;6155520;23;20032;-81
2023/01/29 07:48:29;;;;;;;24.63;21.80;;;4.00;99.90;;;;;;6155671;23;20425;-81
2023/01/29 07:50:56;;;;;;;25.70;22.88;;;4.00;99.90;;;;;;6155744;23;20013;-81
2023/01/29 07:53:21;;;;;;;25.77;21.65;;;4.00;99.90;;;;;;6131524;23;20021;-81
2023/01/29 07:55:47;;;;;;;24.58;21.92;;;4.00;99.90;;;;;;6156201;23;20024;-81
2023/01/29 07:58:12;;;;;;;26.45;23.42;;;4.00;99.90;;;;;;6131588;23;20096;-81
2023/01/29 08:00:38;;;;;;;24.60;21.80;;;4.00;99.90;;;;;;6155995;23;20013;-81
2023/01/29 08:03:06;;;;;;;24.98;22.35;;;4.00;99.90;;;;;;6155096;23;20017;-82
2023/01/29 08:05:32;;;;;;;25.48;22.75;;;4.00;99.90;;;;;;6157166;23;20021;-81
2023/01/29 08:07:58;;;;;;;27.33;23.50;;;4.10;99.90;;;;;;6131211;23;20010;-81
2023/01/29 08:10:23;;;;;;;28.95;23.70;;;4.00;99.90;;;;;;6129389;23;20013;-81
2023/01/29 08:13:00;;;;;;;26.50;22.83;;;4.00;99.90;;;;;;6128031;23;20332;-81
2023/01/29 08:15:26;;;;;;;28.42;23.65;;;4.00;99.90;;;;;;6127051;23;20378;-80
2023/01/29 08:21:32;;;;;;;30.00;23.90;;;4.10;99.90;;;;;;6144337;23;20021;-83
2023/01/29 08:23:58;;;;;;;27.98;24.13;;;4.00;99.90;;;;;;6159714;23;20020;-83
2023/01/29 08:26:25;;;;;;;32.17;25.08;;;4.10;99.90;;;;;;6128408;23;20020;-83
2023/01/29 08:28:50;;;;;;;30.08;24.52;;;4.00;99.90;;;;;;6157832;23;20092;-83
2023/01/29 08:31:19;;;;;;;29.20;24.45;;;4.10;99.90;;;;;;6153649;23;20045;-84
2023/01/29 08:33:45;;;;;;;29.13;24.40;;;4.10;99.90;;;;;;6128566;23;20100;-83
2023/01/29 08:36:11;;;;;;;29.70;24.35;;;4.10;99.90;;;;;;6129222;23;20036;-84
2023/01/29 08:38:37;;;;;;;26.45;23.20;;;4.20;99.90;;;;;;6129764;23;20037;-83
2023/01/29 08:41:03;;;;;;;28.33;25.25;;;4.20;99.90;;;;;;6154034;23;20013;-82
2023/01/29 08:43:29;;;;;;;35.78;24.88;;;4.20;99.90;;;;;;6131381;23;20017;-84
2023/01/29 08:45:55;;;;;;;28.50;23.58;;;4.30;99.90;;;;;;6128112;23;20017;-83
2023/01/29 08:48:21;;;;;;;28.38;24.83;;;4.60;99.90;;;;;;6134430;23;20017;-85
2023/01/29 08:50:47;;;;;;;31.20;25.05;;;4.30;99.90;;;;;;6157477;23;20017;-84
2023/01/29 08:53:12;;;;;;;33.00;25.75;;;4.30;99.90;;;;;;6150626;23;20013;-83
2023/01/29 08:55:39;;;;;;;25.90;23.00;;;4.20;99.90;;;;;;6158484;23;20069;-82
2023/01/29 08:58:06;;;;;;;29.23;24.70;;;4.30;99.90;;;;;;6161605;23;20017;-83
2023/01/29 09:00:32;;;;;;;31.75;25.55;;;4.80;99.90;;;;;;6154225;23;20025;-84
2023/01/29 09:02:59;;;;;;;28.13;24.85;;;4.20;99.90;;;;;;6156487;23;20042;-82
2023/01/29 09:05:26;;;;;;;28.75;23.88;;;4.30;99.90;;;;;;6131676;23;20053;-83
2023/01/29 09:07:52;;;;;;;30.95;24.55;;;4.30;99.90;;;;;;6134650;23;20494;-84
2023/01/29 09:10:17;;;;;;;30.58;25.15;;;4.40;99.90;;;;;;6161761;23;20068;-82
2023/01/29 09:12:43;;;;;;;31.80;24.45;;;4.50;99.90;;;;;;6160714;23;20043;-82
2023/01/29 09:15:09;;;;;;;32.00;26.25;;;4.30;99.90;;;;;;6155652;23;20076;-83
2023/01/29 09:17:34;;;;;;;27.35;24.38;;;4.40;99.90;;;;;;6158207;23;20084;-83
2023/01/29 09:20:00;;;;;;;33.53;24.15;;;4.40;99.90;;;;;;6154508;23;20501;-83
2023/01/29 09:22:26;;;;;;;27.95;24.48;;;4.40;99.90;;;;;;6155953;23;20013;-83
2023/01/29 09:24:51;;;;;;;28.85;24.40;;;4.40;99.90;;;;;;6157393;23;20458;-83
2023/01/29 09:27:17;;;;;;;28.17;25.17;;;4.50;99.90;;;;;;6132012;23;20026;-83
2023/01/29 09:29:42;;;;;;;28.65;25.08;;;4.50;99.90;;;;;;6131164;23;20013;-83
2023/01/29 09:32:08;;;;;;;31.45;24.60;;;4.50;99.90;;;;;;6132195;23;20074;-83
2023/01/29 09:34:34;;;;;;;31.75;24.25;;;4.50;99.90;;;;;;6159267;23;20050;-83
2023/01/29 09:36:59;;;;;;;31.00;25.30;;;4.50;99.90;;;;;;6130169;23;20010;-83
2023/01/29 09:39:25;;;;;;;27.55;24.48;;;4.50;99.90;;;;;;6153768;23;20446;-83
2023/01/29 09:42:19;;;;;;;33.80;25.42;;;4.50;99.90;;;;;;6154807;23;20020;-84
2023/01/29 09:44:59;;;;;;;27.88;24.50;;;4.50;99.90;;;;;;6153561;23;20018;-86
2023/01/29 09:47:26;;;;;;;28.45;23.88;;;4.50;99.90;;;;;;6163139;23;20013;-86
2023/01/29 09:50:01;;;;;;;28.92;25.80;;;4.50;99.90;;;;;;6153076;23;20342;-86
2023/01/29 09:52:46;;;;;;;27.40;23.77;;;4.60;99.90;;;;;;6154055;23;20096;-86
2023/01/29 09:55:24;;;;;;;27.38;23.95;;;4.60;99.90;;;;;;6152381;23;20075;-84
2023/01/29 09:57:56;;;;;;;27.92;24.58;;;4.70;99.90;;;;;;6154601;23;20881;-86
2023/01/29 10:00:56;;;;;;;29.05;25.90;;;5.00;99.90;;;;;;6157714;23;20108;-87
2023/01/29 10:03:42;;;;;;;29.52;23.30;;;4.70;99.90;;;;;;6147148;23;20091;-84
2023/01/29 10:06:25;;;;;;;28.35;25.20;;;4.70;99.90;;;;;;6142026;23;20518;-83
2023/01/29 10:09:19;;;;;;;26.77;23.88;;;4.70;99.90;;;;;;6151972;23;20022;-85
2023/01/29 10:12:21;;;;;;;28.77;25.75;;;4.80;99.90;;;;;;6159269;23;20017;-84
2023/01/29 10:15:16;;;;;;;26.58;23.55;;;4.80;99.90;;;;;;6149155;23;20073;-86
2023/01/29 10:18:01;;;;;;;27.75;23.20;;;4.80;99.90;;;;;;6166392;23;20080;-82
2023/01/29 10:20:55;;;;;;;27.27;24.58;;;4.80;99.90;;;;;;6159179;23;20022;-85
2023/01/29 10:23:23;;;;;;;25.95;23.05;;;4.80;99.90;;;;;;6164770;23;20021;-84
2023/01/29 10:25:49;;;;;;;28.58;24.83;;;4.80;99.90;;;;;;6154138;23;20017;-84
2023/01/29 10:28:17;;;;;;;26.63;23.77;;;4.80;99.90;;;;;;6153687;23;20022;-84
2023/01/29 10:30:49;;;;;;;27.77;24.95;;;5.00;99.90;;;;;;6156722;23;20594;-83
2023/01/29 10:33:25;;;;;;;25.92;23.23;;;4.80;99.90;;;;;;6163206;23;19997;-86
2023/01/29 10:36:01;;;;;;;29.45;24.50;;;4.80;99.90;;;;;;6156057;23;20021;-86
2023/01/29 10:38:33;;;;;;;29.02;25.23;;;4.80;99.90;;;;;;6151431;23;20022;-85
2023/01/29 10:41:09;;;;;;;25.40;22.73;;;4.80;99.90;;;;;;6156408;23;20095;-85
2023/01/29 10:43:54;;;;;;;26.98;24.13;;;4.80;99.90;;;;;;6151981;23;20018;-86
2023/01/29 10:46:28;;;;;;;30.13;23.55;;;4.80;99.90;;;;;;6150245;23;20013;-85
2023/01/29 10:49:09;;;;;;;27.05;23.80;;;4.90;99.90;;;;;;6152800;23;20021;-86
2023/01/29 10:52:03;;;;;;;29.63;24.75;;;4.80;99.90;;;;;;6160589;23;20176;-85
2023/01/29 10:54:48;;;;;;;26.67;23.75;;;4.80;99.90;;;;;;6161753;23;20765;-84
2023/01/29 10:57:56;;;;;;;26.73;23.55;;;4.80;99.90;;;;;;6161033;23;20013;-86
2023/01/29 11:00:30;;;;;;;26.60;23.80;;;4.80;99.90;;;;;;6148323;23;20018;-82
2023/01/29 11:02:55;;;;;;;29.27;23.55;;;4.80;99.90;;;;;;6152380;23;20014;-84
2023/01/29 11:05:42;;;;;;;27.00;24.08;;;4.90;99.90;;;;;;6126862;23;20509;-85
2023/01/29 11:08:15;;;;;;;27.83;24.70;;;4.90;99.90;;;;;;6126279;23;20021;-84
2023/01/29 11:10:50;;;;;;;31.88;24.27;;;4.80;99.90;;;;;;6124638;23;20482;-84
2023/01/29 11:13:17;;;;;;;29.65;24.67;;;4.90;99.90;;;;;;6127579;23;20048;-84
2023/01/29 11:15:43;;;;;;;28.02;23.77;;;4.80;99.90;;;;;;6152524;23;20357;-84
2023/01/29 11:18:13;;;;;;;30.40;25.90;;;4.80;99.90;;;;;;6129038;23;20048;-84
2023/01/29 11:20:40;;;;;;;28.45;24.45;;;4.90;99.90;;;;;;6128042;23;20018;-84
2023/01/29 11:23:21;;;;;;;31.77;24.60;;;4.90;99.90;;;;;;6127952;23;20520;-84
2023/01/29 11:25:52;;;;;;;32.03;24.88;;;4.90;99.90;;;;;;6126856;23;20017;-84
2023/01/29 11:28:38;;;;;;;29.33;25.73;;;5.00;99.90;;;;;;6153080;23;20014;-84
2023/01/29 11:31:24;;;;;;;27.85;24.10;;;5.00;99.90;;;;;;6152397;23;20013;-84
2023/01/29 11:33:52;;;;;;;;;;;5.00;99.90;;;;;;6128044;23;20048;-85
2023/01/29 11:36:29;;;;;;;30.33;24.70;;;5.00;99.90;;;;;;6150825;23;19921;-85
2023/01/29 11:39:07;;;;;;;27.70;22.70;;;5.10;99.90;;;;;;6152065;23;20067;-84
2023/01/29 11:41:42;;;;;;;27.98;24.73;;;5.10;99.90;;;;;;6127059;23;20389;-84
2023/01/29 11:44:32;;;;;;;27.58;23.73;;;5.30;99.90;;;;;;6152877;23;20010;-84
2023/01/29 11:47:19;;;;;;;29.15;23.13;;;5.00;99.90;;;;;;6127802;23;20044;-84
2023/01/29 11:50:00;;;;;;;29.73;24.55;;;5.00;99.90;;;;;;6127429;23;20028;-85
2023/01/29 11:52:42;;;;;;;30.90;24.02;;;5.00;99.90;;;;;;6127506;23;20013;-84
2023/01/29 11:55:27;;;;;;;26.95;24.17;;;5.00;99.90;;;;;;6126883;23;20116;-84
2023/01/29 11:57:55;;;;;;;26.83;23.30;;;5.00;99.90;;;;;;6151125;23;20312;-85
2023/01/29 12:00:27;;;;;;;26.80;24.00;;;5.00;99.90;;;;;;6126664;23;20006;-84
2023/01/29 12:03:18;;;;;;;27.95;23.60;;;5.00;99.90;;;;;;6127431;23;20017;-85
2023/01/29 12:06:17;;;;;;;26.80;23.90;;;5.10;99.90;;;;;;6150889;23;20033;-85
2023/01/29 12:08:42;;;;;;;25.45;22.42;;;5.10;99.90;;;;;;6149845;23;20431;-85
2023/01/29 12:11:26;;;;;;;29.98;23.52;;;5.10;99.90;;;;;;6150746;23;20013;-84
2023/01/29 12:17:25;;;;;;;26.38;21.67;;;5.20;99.90;;;;;;6152126;23;20026;-84
2023/01/29 12:19:58;;;;;;;24.98;22.30;;;5.20;99.90;;;;;;6151507;23;20013;-84
2023/01/29 12:22:46;;;;;;;26.58;21.63;;;5.20;99.90;;;;;;6126241;23;20084;-85
2023/01/29 12:25:23;;;;;;;25.13;21.38;;;5.20;99.90;;;;;;6150330;23;20017;-85
2023/01/29 12:28:12;;;;;;;;;;;5.30;99.90;;;;;;6152833;23;20466;-86
2023/01/29 12:31:04;;;;;;;25.80;21.35;;;5.40;99.90;;;;;;6126481;23;19916;-84
2023/01/29 12:34:05;;;;;;;25.02;22.23;;;5.40;99.90;;;;;;6151426;23;20537;-83
2023/01/29 12:37:35;;;;;;;25.27;22.35;;;5.30;99.90;;;;;;6123282;23;20063;-87
2023/01/29 12:40:12;;;;;;;28.90;24.83;;;5.30;99.90;;;;;;6150682;23;20025;-82
2023/01/29 12:42:41;;;;;;;24.88;22.27;;;5.30;99.90;;;;;;6127974;23;20013;-84
2023/01/29 12:45:09;;;;;;;28.75;24.25;;;5.30;99.90;;;;;;6120781;23;20022;-84
2023/01/29 12:47:40;;;;;;;31.35;24.38;;;5.30;99.90;;;;;;6124248;23;20024;-83
2023/01/29 12:50:18;;;;;;;29.90;24.10;;;5.20;99.90;;;;;;6126626;23;20021;-85
2023/01/29 12:52:49;;;;;;;28.73;25.65;;;5.30;99.90;;;;;;6125421;23;20037;-85
2023/01/29 12:55:16;;;;;;;27.27;24.27;;;5.30;99.90;;;;;;6123407;23;20017;-83
2023/01/29 12:57:56;;;;;;;25.45;22.88;;;5.30;99.90;;;;;;6127601;23;20010;-84
2023/01/29 13:01:08;;;;;;;27.52;23.83;;;5.30;99.90;;;;;;6165928;23;20035;-86
2023/01/29 13:15:14;;;;;;;31.02;27.70;;;5.00;99.90;;;;;;6168620;23;20072;-85
2023/01/29 14:13:35;;;;;;;35.67;29.63;;;4.80;99.90;;;;;;6158532;23;20064;-85
2023/01/29 14:16:00;;;;;;;32.65;28.48;;;4.90;99.90;;;;;;6126779;23;20073;-82
2023/01/29 14:18:28;;;;;;;34.05;27.17;;;4.80;99.90;;;;;;6126325;23;20022;-83
2023/01/29 14:21:02;;;;;;;31.02;27.27;;;4.80;99.90;;;;;;6152626;23;20048;-83
2023/01/29 14:23:47;;;;;;;32.45;27.73;;;4.80;99.90;;;;;;6126463;23;20013;-83
2023/01/29 14:26:31;;;;;;;35.95;29.23;;;4.80;99.90;;;;;;6125879;23;20099;-84
2023/01/29 14:29:13;;;;;;;37.85;30.48;;;4.80;99.90;;;;;;6128240;23;20017;-82
2023/01/29 14:31:43;;;;;;;32.67;28.80;;;4.70;99.90;;;;;;6128606;23;20655;-82
2023/01/29 14:34:24;;;;;;;38.03;31.17;;;4.70;99.90;;;;;;6151727;23;20025;-82
2023/01/29 14:36:54;;;;;;;37.78;30.52;;;4.70;99.90;;;;;;6150114;23;20021;-81
2023/01/29 14:39:36;;;;;;;37.85;32.15;;;4.70;99.90;;;;;;6152448;23;20014;-82
2023/01/29 14:42:13;;;;;;;48.45;32.60;;;4.70;99.90;;;;;;6152111;23;20394;-82
2023/01/29 14:44:47;;;;;;;41.83;32.25;;;4.60;99.90;;;;;;6149619;23;20029;-82
2023/01/29 14:47:33;;;;;;;41.28;32.47;;;4.60;99.90;;;;;;6126145;23;20029;-82
2023/01/29 14:50:02;;;;;;;40.20;33.45;;;4.60;99.90;;;;;;6127695;23;20116;-82
2023/01/29 14:52:41;;;;;;;42.85;33.85;;;4.70;99.90;;;;;;6152153;23;20028;-83